Northolt, United Kingdom

11:12 AM BST die 24o August, anno 2016 (GMT +0100)
Northolt Air Base | | Change Station

Elev 121 ft 51.55 °N, 0.42 °W | Updated 22 minutes ago

Clear
Serena
79 °F
Feels Like 79 °F
N
6
Ventus Variabilis Ventus from Magis Eurus quam Aquilo

Hodie
High -- | Low -- °F
--% Chance of Precip.
Yesterday
High -- | Low -- °F
Precip. -- in
Pressio 30.06 in
Visibilitas -9999.0 milia passuum
Clouds
Frigus in quo Ros apparet 59 °F
Umor 51%
Rainfall 0.00 in
Snow Depth Not available.
6:01 AM 8:04 PM
Waning Gibbous, 58% visible
METAR EGWU 240950Z 06005KT CAVOK 26/15 Q1018 BLU NOSIG
Pressio 30.06 in
Visibilitas -9999.0 milia passuum
Clouds
Frigus in quo Ros apparet 59 °F
Umor 51%
Rainfall 0.00 in
Snow Depth Not available.
6:01 AM 8:04 PM
Waning Gibbous, 58% visible
METAR EGWU 240950Z 06005KT CAVOK 26/15 Q1018 BLU NOSIG

10-Day Weather Forecast

×

Almanac

Astronomy

Aug. 24, 2016 Rise Set
Actual Time
Civil Twilight
Nautical Twilight
Astronomical Twilight
Moon
Length Of Visible Light
Length of Day
Tomorrow will be .
, % of the Moon is Illuminated

Today's Extremes

Country Highs Country Lows

Community

WunderPhotos

Upload Photos

1,934,560 photos uploaded!

WunderBlog® & News

Nearby

Air Quality

  Air Quality AQ Index Pollutant
Not available.

Snow Depth

Station Depth Elevation

Earthquake Activity

City Distance Mag. Time & Date
Minimum magnitude displayed is 2.5.

Coastal Water Temperatures

Locus Calor

Stations

Nearby Weather Stations

Station Location Temp Frigus Venti Frigus in quo Ros apparet Umor Ventus Precip. Elev Renovata Type